Sautee Nacoochee, Georgia
Current Conditions -  °F | °C
As of 5:15 AM on Monday 26 Jan 2015 (Local Time) from KTOC Reporting Station
Broken Clouds Broken Clouds  
Wind Chill: 41°   Ceiling: 4300
Heat Index: 41°   Visibility: 10mi
Dew Point: 39°   Wind: 3mph
Humidity: 95%   Direction: 230°SW
Pressure: 29.65"   Gusts: NA
Location:  34.72°N, 83.73°W
Report Text: KTOC 261015Z AUTO 23003KT 10SM BKN043 05/04 A2965 RMK AO2 T00480040
Loading
Personal Weather Stations






























Interactive Weather Map New forecast layout! Learn more

10-Day Weather Forecast

Advertisements
Track Severe Weather on mobile